sensor_id;sensor_type;location;lat;lon;timestamp;pressure;altitude;pressure_sealevel;temperature;humidity
35224;BME280;21367;51.930;8.112;2023-04-03T00:00:27;102426.81;;;4.12;71.74
35224;BME280;21367;51.930;8.112;2023-04-03T00:05:42;102427.75;;;4.04;72.46
35224;BME280;21367;51.930;8.112;2023-04-03T00:10:53;102440.91;;;2.71;76.67
35224;BME280;21367;51.930;8.112;2023-04-03T00:16:19;102435.50;;;3.01;75.79
35224;BME280;21367;51.930;8.112;2023-04-03T00:27:36;102438.72;;;3.51;73.94
35224;BME280;21367;51.930;8.112;2023-04-03T00:33:13;102454.75;;;2.99;74.48
35224;BME280;21367;51.930;8.112;2023-04-03T00:39:07;102453.06;;;3.42;74.48
35224;BME280;21367;51.930;8.112;2023-04-03T00:50:08;102449.38;;;2.63;77.14
35224;BME280;21367;51.930;8.112;2023-04-03T00:55:35;102450.59;;;2.34;77.19
35224;BME280;21367;51.930;8.112;2023-04-03T01:01:15;102458.06;;;2.41;77.66
35224;BME280;21367;51.930;8.112;2023-04-03T01:06:25;102457.41;;;2.01;79.57
35224;BME280;21367;51.930;8.112;2023-04-03T01:12:15;102456.63;;;1.78;79.71
35224;BME280;21367;51.930;8.112;2023-04-03T01:18:11;102454.00;;;1.69;80.84
35224;BME280;21367;51.930;8.112;2023-04-03T01:24:13;102458.78;;;1.66;81.73
35224;BME280;21367;51.930;8.112;2023-04-03T01:29:25;102465.16;;;1.47;82.49
35224;BME280;21367;51.930;8.112;2023-04-03T01:34:41;102469.97;;;1.36;81.98
35224;BME280;21367;51.930;8.112;2023-04-03T01:39:48;102462.78;;;1.64;82.30
35224;BME280;21367;51.930;8.112;2023-04-03T01:44:52;102465.88;;;1.61;82.05
35224;BME280;21367;51.930;8.112;2023-04-03T01:49:58;102470.06;;;1.61;81.76
35224;BME280;21367;51.930;8.112;2023-04-03T01:55:07;102473.94;;;1.19;82.42
35224;BME280;21367;51.930;8.112;2023-04-03T02:00:14;102471.59;;;1.04;84.02
35224;BME280;21367;51.930;8.112;2023-04-03T02:05:21;102467.75;;;1.24;82.74
35224;BME280;21367;51.930;8.112;2023-04-03T02:10:25;102470.72;;;1.35;82.34
35224;BME280;21367;51.930;8.112;2023-04-03T02:15:30;102475.13;;;0.90;83.81
35224;BME280;21367;51.930;8.112;2023-04-03T02:20:38;102468.88;;;1.03;82.92
35224;BME280;21367;51.930;8.112;2023-04-03T02:25:45;102474.34;;;0.99;83.57
35224;BME280;21367;51.930;8.112;2023-04-03T02:30:49;102485.25;;;0.90;83.96
35224;BME280;21367;51.930;8.112;2023-04-03T02:35:57;102481.50;;;0.87;84.35
35224;BME280;21367;51.930;8.112;2023-04-03T02:41:01;102482.59;;;0.66;84.39
35224;BME280;21367;51.930;8.112;2023-04-03T02:46:07;102479.41;;;0.99;84.92
35224;BME280;21367;51.930;8.112;2023-04-03T02:51:14;102487.34;;;0.56;84.46
35224;BME280;21367;51.930;8.112;2023-04-03T02:56:18;102485.72;;;0.79;84.21
35224;BME280;21367;51.930;8.112;2023-04-03T03:01:23;102481.25;;;0.92;82.61
35224;BME280;21367;51.930;8.112;2023-04-03T03:06:35;102487.56;;;1.35;82.51
35224;BME280;21367;51.930;8.112;2023-04-03T03:11:39;102484.91;;;0.87;82.27
35224;BME280;21367;51.930;8.112;2023-04-03T03:16:44;102480.91;;;1.44;80.97
35224;BME280;21367;51.930;8.112;2023-04-03T03:21:51;102478.50;;;1.93;78.48
35224;BME280;21367;51.930;8.112;2023-04-03T03:26:56;102484.16;;;1.11;81.09
35224;BME280;21367;51.930;8.112;2023-04-03T03:32:01;102495.31;;;1.36;81.16
35224;BME280;21367;51.930;8.112;2023-04-03T03:37:07;102491.31;;;1.23;80.87
35224;BME280;21367;51.930;8.112;2023-04-03T03:42:11;102498.59;;;1.67;78.45
35224;BME280;21367;51.930;8.112;2023-04-03T03:47:17;102505.34;;;0.89;81.59
35224;BME280;21367;51.930;8.112;2023-04-03T03:52:25;102495.19;;;1.28;79.86
35224;BME280;21367;51.930;8.112;2023-04-03T03:57:31;102496.53;;;1.72;78.41
35224;BME280;21367;51.930;8.112;2023-04-03T04:02:35;102504.13;;;1.56;78.26
35224;BME280;21367;51.930;8.112;2023-04-03T04:07:42;102518.16;;;0.90;81.58
35224;BME280;21367;51.930;8.112;2023-04-03T04:12:46;102515.31;;;0.34;82.03
35224;BME280;21367;51.930;8.112;2023-04-03T04:17:55;102523.22;;;0.37;82.69
35224;BME280;21367;51.930;8.112;2023-04-03T04:23:02;102523.44;;;0.39;83.50
35224;BME280;21367;51.930;8.112;2023-04-03T04:28:07;102532.31;;;0.58;82.86
35224;BME280;21367;51.930;8.112;2023-04-03T04:33:12;102530.38;;;0.26;84.21
35224;BME280;21367;51.930;8.112;2023-04-03T04:38:21;102530.72;;;0.21;83.63
35224;BME280;21367;51.930;8.112;2023-04-03T04:43:28;102531.03;;;0.62;83.21
35224;BME280;21367;51.930;8.112;2023-04-03T04:48:33;102539.78;;;0.50;83.31
35224;BME280;21367;51.930;8.112;2023-04-03T04:54:02;102539.09;;;-0.38;87.54
35224;BME280;21367;51.930;8.112;2023-04-03T04:59:07;102542.41;;;-0.02;87.59
35224;BME280;21367;51.930;8.112;2023-04-03T05:04:11;102547.28;;;-0.62;89.05
35224;BME280;21367;51.930;8.112;2023-04-03T05:09:37;102549.69;;;-0.19;88.62
35224;BME280;21367;51.930;8.112;2023-04-03T05:14:44;102557.81;;;-0.15;89.01
35224;BME280;21367;51.930;8.112;2023-04-03T05:19:48;102559.44;;;-0.22;87.41
35224;BME280;21367;51.930;8.112;2023-04-03T05:25:12;102549.03;;;-0.40;88.12
35224;BME280;21367;51.930;8.112;2023-04-03T05:30:18;102560.81;;;-0.62;90.08
35224;BME280;21367;51.930;8.112;2023-04-03T05:35:23;102568.88;;;0.16;87.49
35224;BME280;21367;51.930;8.112;2023-04-03T05:40:34;102574.66;;;-0.44;89.32
35224;BME280;21367;51.930;8.112;2023-04-03T05:45:38;102577.16;;;-0.30;90.04
35224;BME280;21367;51.930;8.112;2023-04-03T05:50:41;102587.50;;;-0.71;91.31
35224;BME280;21367;51.930;8.112;2023-04-03T05:55:55;102592.47;;;-0.21;89.57
35224;BME280;21367;51.930;8.112;2023-04-03T06:00:59;102604.22;;;-0.29;91.42
35224;BME280;21367;51.930;8.112;2023-04-03T06:06:04;102607.97;;;-0.11;90.33
35224;BME280;21367;51.930;8.112;2023-04-03T06:11:11;102606.50;;;-0.02;89.59
35224;BME280;21367;51.930;8.112;2023-04-03T06:16:17;102612.38;;;0.20;87.99
35224;BME280;21367;51.930;8.112;2023-04-03T06:21:21;102618.44;;;-0.15;89.26
35224;BME280;21367;51.930;8.112;2023-04-03T06:26:43;102614.56;;;0.17;89.07
35224;BME280;21367;51.930;8.112;2023-04-03T06:31:48;102609.44;;;0.32;88.74
35224;BME280;21367;51.930;8.112;2023-04-03T06:36:52;102610.78;;;0.14;87.10
35224;BME280;21367;51.930;8.112;2023-04-03T06:42:00;102596.56;;;0.44;85.92
35224;BME280;21367;51.930;8.112;2023-04-03T06:47:11;102615.56;;;0.41;85.29
35224;BME280;21367;51.930;8.112;2023-04-03T06:52:16;102617.94;;;0.69;84.70
35224;BME280;21367;51.930;8.112;2023-04-03T06:57:24;102631.75;;;0.80;82.94
35224;BME280;21367;51.930;8.112;2023-04-03T07:02:28;102644.28;;;1.02;82.22
35224;BME280;21367;51.930;8.112;2023-04-03T07:07:32;102647.03;;;0.96;80.39
35224;BME280;21367;51.930;8.112;2023-04-03T07:12:39;102652.84;;;1.18;79.37
35224;BME280;21367;51.930;8.112;2023-04-03T07:17:43;102657.63;;;1.31;78.24
35224;BME280;21367;51.930;8.112;2023-04-03T07:22:46;102664.13;;;1.36;77.07
35224;BME280;21367;51.930;8.112;2023-04-03T07:27:54;102661.97;;;1.55;75.78
35224;BME280;21367;51.930;8.112;2023-04-03T07:32:58;102660.88;;;1.76;75.46
35224;BME280;21367;51.930;8.112;2023-04-03T07:38:03;102673.81;;;1.86;73.61
35224;BME280;21367;51.930;8.112;2023-04-03T07:43:10;102666.00;;;2.23;72.72
35224;BME280;21367;51.930;8.112;2023-04-03T07:48:15;102674.72;;;2.50;69.84
35224;BME280;21367;51.930;8.112;2023-04-03T07:53:19;102678.50;;;2.53;69.79
35224;BME280;21367;51.930;8.112;2023-04-03T07:58:27;102688.63;;;2.53;67.69
35224;BME280;21367;51.930;8.112;2023-04-03T08:03:31;102690.50;;;2.63;67.47
35224;BME280;21367;51.930;8.112;2023-04-03T08:08:36;102683.94;;;2.81;67.21
35224;BME280;21367;51.930;8.112;2023-04-03T08:13:43;102689.78;;;3.05;66.44
35224;BME280;21367;51.930;8.112;2023-04-03T08:18:47;102686.75;;;3.24;66.06
35224;BME280;21367;51.930;8.112;2023-04-03T08:23:52;102689.75;;;3.20;65.07
35224;BME280;21367;51.930;8.112;2023-04-03T08:28:59;102681.78;;;3.42;63.64
35224;BME280;21367;51.930;8.112;2023-04-03T08:34:03;102681.63;;;3.82;61.41
35224;BME280;21367;51.930;8.112;2023-04-03T08:39:07;102678.00;;;3.71;60.65
35224;BME280;21367;51.930;8.112;2023-04-03T08:44:17;102684.78;;;3.88;60.53
35224;BME280;21367;51.930;8.112;2023-04-03T08:49:27;102673.06;;;4.24;59.96
35224;BME280;21367;51.930;8.112;2023-04-03T08:54:34;102669.78;;;4.59;58.20
35224;BME280;21367;51.930;8.112;2023-04-03T08:59:41;102669.59;;;4.84;58.43
35224;BME280;21367;51.930;8.112;2023-04-03T09:04:47;102670.78;;;4.87;56.55
35224;BME280;21367;51.930;8.112;2023-04-03T09:09:51;102673.34;;;5.05;56.81
35224;BME280;21367;51.930;8.112;2023-04-03T09:15:02;102678.56;;;4.98;54.74
35224;BME280;21367;51.930;8.112;2023-04-03T09:20:17;102682.75;;;5.23;55.19
35224;BME280;21367;51.930;8.112;2023-04-03T09:25:25;102676.22;;;5.36;57.21
35224;BME280;21367;51.930;8.112;2023-04-03T09:30:34;102682.19;;;5.45;58.28
35224;BME280;21367;51.930;8.112;2023-04-03T09:35:40;102679.50;;;5.43;57.33
35224;BME280;21367;51.930;8.112;2023-04-03T09:40:44;102677.34;;;5.20;55.92
35224;BME280;21367;51.930;8.112;2023-04-03T09:46:16;102673.53;;;5.43;55.86
35224;BME280;21367;51.930;8.112;2023-04-03T09:51:25;102680.50;;;5.99;56.88
35224;BME280;21367;51.930;8.112;2023-04-03T09:56:30;102678.28;;;5.85;56.17
35224;BME280;21367;51.930;8.112;2023-04-03T10:01:39;102670.59;;;6.21;55.66
35224;BME280;21367;51.930;8.112;2023-04-03T10:06:47;102657.81;;;6.02;53.67
35224;BME280;21367;51.930;8.112;2023-04-03T10:11:59;102659.19;;;5.90;54.56
35224;BME280;21367;51.930;8.112;2023-04-03T10:17:16;102650.16;;;6.59;54.91
35224;BME280;21367;51.930;8.112;2023-04-03T10:22:27;102650.84;;;6.29;53.45
35224;BME280;21367;51.930;8.112;2023-04-03T10:27:44;102634.84;;;6.40;53.36
35224;BME280;21367;51.930;8.112;2023-04-03T10:32:59;102635.16;;;6.72;53.41
35224;BME280;21367;51.930;8.112;2023-04-03T10:38:15;102640.41;;;7.03;52.77
35224;BME280;21367;51.930;8.112;2023-04-03T10:43:28;102640.22;;;7.20;52.46
35224;BME280;21367;51.930;8.112;2023-04-03T10:48:49;102632.06;;;7.24;52.37
35224;BME280;21367;51.930;8.112;2023-04-03T10:54:00;102626.38;;;6.79;50.45
35224;BME280;21367;51.930;8.112;2023-04-03T10:59:15;102633.50;;;7.02;52.63
35224;BME280;21367;51.930;8.112;2023-04-03T11:04:25;102640.81;;;7.07;52.02
35224;BME280;21367;51.930;8.112;2023-04-03T11:09:33;102628.44;;;8.02;53.21
35224;BME280;21367;51.930;8.112;2023-04-03T11:14:40;102617.03;;;8.19;52.05
35224;BME280;21367;51.930;8.112;2023-04-03T11:19:50;102613.19;;;8.14;50.14
35224;BME280;21367;51.930;8.112;2023-04-03T11:25:02;102602.16;;;8.25;51.75
35224;BME280;21367;51.930;8.112;2023-04-03T11:30:13;102601.91;;;9.29;51.67
35224;BME280;21367;51.930;8.112;2023-04-03T11:35:24;102597.13;;;8.57;50.45
35224;BME280;21367;51.930;8.112;2023-04-03T11:40:31;102608.59;;;7.09;54.12
35224;BME280;21367;51.930;8.112;2023-04-03T11:45:38;102603.88;;;7.14;52.27
35224;BME280;21367;51.930;8.112;2023-04-03T11:50:57;102586.41;;;8.31;51.91
35224;BME280;21367;51.930;8.112;2023-04-03T11:56:04;102588.97;;;8.31;50.50
35224;BME280;21367;51.930;8.112;2023-04-03T12:01:09;102573.84;;;8.76;49.22
35224;BME280;21367;51.930;8.112;2023-04-03T12:12:01;102564.38;;;9.41;48.51
35224;BME280;21367;51.930;8.112;2023-04-03T12:17:27;102548.16;;;9.09;48.73
35224;BME280;21367;51.930;8.112;2023-04-03T12:22:33;102543.00;;;10.45;48.00
35224;BME280;21367;51.930;8.112;2023-04-03T12:27:42;102553.22;;;8.75;50.94
35224;BME280;21367;51.930;8.112;2023-04-03T12:32:55;102549.00;;;7.00;50.71
35224;BME280;21367;51.930;8.112;2023-04-03T12:38:28;102540.94;;;9.15;51.36
35224;BME280;21367;51.930;8.112;2023-04-03T12:43:48;102538.50;;;10.07;49.07
35224;BME280;21367;51.930;8.112;2023-04-03T12:48:59;102527.97;;;9.81;47.44
35224;BME280;21367;51.930;8.112;2023-04-03T12:54:09;102517.47;;;11.47;46.17
35224;BME280;21367;51.930;8.112;2023-04-03T12:59:21;102519.53;;;9.93;47.62
35224;BME280;21367;51.930;8.112;2023-04-03T13:04:27;102512.47;;;10.98;45.32
35224;BME280;21367;51.930;8.112;2023-04-03T13:09:32;102512.69;;;11.01;46.38
35224;BME280;21367;51.930;8.112;2023-04-03T13:14:39;102512.44;;;10.61;47.54
35224;BME280;21367;51.930;8.112;2023-04-03T13:19:44;102510.13;;;10.06;49.92
35224;BME280;21367;51.930;8.112;2023-04-03T13:24:49;102505.94;;;10.78;47.46
35224;BME280;21367;51.930;8.112;2023-04-03T13:29:59;102504.78;;;10.38;44.91
35224;BME280;21367;51.930;8.112;2023-04-03T13:35:26;102503.53;;;11.18;45.55
35224;BME280;21367;51.930;8.112;2023-04-03T13:40:31;102496.59;;;10.20;45.92
35224;BME280;21367;51.930;8.112;2023-04-03T13:45:54;102486.88;;;9.57;46.71
35224;BME280;21367;51.930;8.112;2023-04-03T13:51:01;102495.19;;;8.33;48.69
35224;BME280;21367;51.930;8.112;2023-04-03T13:56:08;102487.81;;;9.36;47.37
35224;BME280;21367;51.930;8.112;2023-04-03T14:01:20;102477.91;;;9.52;47.25
35224;BME280;21367;51.930;8.112;2023-04-03T14:06:24;102467.59;;;9.98;47.03
35224;BME280;21367;51.930;8.112;2023-04-03T14:11:30;102481.72;;;8.35;47.87
35224;BME280;21367;51.930;8.112;2023-04-03T14:16:53;102465.78;;;8.18;48.69
35224;BME280;21367;51.930;8.112;2023-04-03T14:21:58;102457.13;;;9.25;48.29
35224;BME280;21367;51.930;8.112;2023-04-03T14:27:05;102451.88;;;9.36;47.60
35224;BME280;21367;51.930;8.112;2023-04-03T14:32:19;102440.44;;;10.73;46.00
35224;BME280;21367;51.930;8.112;2023-04-03T14:37:26;102427.69;;;11.38;45.10
35224;BME280;21367;51.930;8.112;2023-04-03T14:42:32;102417.31;;;11.90;45.49
35224;BME280;21367;51.930;8.112;2023-04-03T14:47:42;102425.22;;;11.66;43.90
35224;BME280;21367;51.930;8.112;2023-04-03T14:52:50;102410.03;;;11.31;42.33
35224;BME280;21367;51.930;8.112;2023-04-03T14:57:54;102406.47;;;12.63;43.54
35224;BME280;21367;51.930;8.112;2023-04-03T15:03:01;102417.16;;;10.72;43.57
35224;BME280;21367;51.930;8.112;2023-04-03T15:08:04;102402.94;;;11.80;43.12
35224;BME280;21367;51.930;8.112;2023-04-03T15:13:08;102416.50;;;11.51;44.47
35224;BME280;21367;51.930;8.112;2023-04-03T15:18:17;102405.50;;;11.67;42.10
35224;BME280;21367;51.930;8.112;2023-04-03T15:23:22;102419.75;;;10.11;45.59
35224;BME280;21367;51.930;8.112;2023-04-03T15:28:31;102416.63;;;8.88;46.43
35224;BME280;21367;51.930;8.112;2023-04-03T15:33:39;102411.94;;;11.08;44.40
35224;BME280;21367;51.930;8.112;2023-04-03T15:38:42;102408.09;;;10.77;43.00
35224;BME280;21367;51.930;8.112;2023-04-03T15:43:46;102409.94;;;10.66;43.32
35224;BME280;21367;51.930;8.112;2023-04-03T15:48:52;102408.72;;;10.86;43.54
35224;BME280;21367;51.930;8.112;2023-04-03T15:53:56;102394.09;;;11.37;41.32
35224;BME280;21367;51.930;8.112;2023-04-03T15:58:59;102386.53;;;11.13;43.06
35224;BME280;21367;51.930;8.112;2023-04-03T16:04:08;102398.25;;;9.50;45.08
35224;BME280;21367;51.930;8.112;2023-04-03T16:09:12;102411.47;;;8.54;47.80
35224;BME280;21367;51.930;8.112;2023-04-03T16:14:15;102410.34;;;9.06;46.77
35224;BME280;21367;51.930;8.112;2023-04-03T16:19:22;102403.31;;;11.33;41.97
35224;BME280;21367;51.930;8.112;2023-04-03T16:24:26;102396.72;;;12.87;39.59
35224;BME280;21367;51.930;8.112;2023-04-03T16:29:32;102392.25;;;13.28;38.04
35224;BME280;21367;51.930;8.112;2023-04-03T16:34:40;102387.13;;;13.00;40.87
35224;BME280;21367;51.930;8.112;2023-04-03T16:39:44;102393.06;;;13.27;40.46
35224;BME280;21367;51.930;8.112;2023-04-03T16:44:47;102387.53;;;12.78;40.32
35224;BME280;21367;51.930;8.112;2023-04-03T16:49:54;102401.03;;;9.54;43.53
35224;BME280;21367;51.930;8.112;2023-04-03T16:54:58;102401.34;;;8.77;46.36
35224;BME280;21367;51.930;8.112;2023-04-03T17:00:03;102400.00;;;8.83;46.24
35224;BME280;21367;51.930;8.112;2023-04-03T17:05:10;102389.06;;;7.97;46.75
35224;BME280;21367;51.930;8.112;2023-04-03T17:10:14;102396.47;;;7.52;48.96
35224;BME280;21367;51.930;8.112;2023-04-03T17:15:18;102396.47;;;7.52;49.41
35224;BME280;21367;51.930;8.112;2023-04-03T17:20:24;102398.22;;;7.83;49.52
35224;BME280;21367;51.930;8.112;2023-04-03T17:25:28;102405.84;;;7.21;50.41
35224;BME280;21367;51.930;8.112;2023-04-03T17:30:32;102402.00;;;7.36;50.96
35224;BME280;21367;51.930;8.112;2023-04-03T17:35:38;102401.75;;;6.61;50.90
35224;BME280;21367;51.930;8.112;2023-04-03T17:40:41;102404.69;;;6.66;51.48
35224;BME280;21367;51.930;8.112;2023-04-03T17:45:45;102407.41;;;6.28;51.88
35224;BME280;21367;51.930;8.112;2023-04-03T17:50:52;102410.56;;;6.15;52.60
35224;BME280;21367;51.930;8.112;2023-04-03T17:55:55;102407.41;;;6.38;53.14
35224;BME280;21367;51.930;8.112;2023-04-03T18:01:06;102406.41;;;6.36;53.48
35224;BME280;21367;51.930;8.112;2023-04-03T18:06:15;102399.16;;;6.51;52.55
35224;BME280;21367;51.930;8.112;2023-04-03T18:11:19;102406.78;;;6.01;54.85
35224;BME280;21367;51.930;8.112;2023-04-03T18:16:27;102406.28;;;6.45;53.76
35224;BME280;21367;51.930;8.112;2023-04-03T18:21:33;102410.59;;;5.77;54.48
35224;BME280;21367;51.930;8.112;2023-04-03T18:26:38;102408.34;;;6.10;53.91
35224;BME280;21367;51.930;8.112;2023-04-03T18:31:45;102413.84;;;6.54;53.04
35224;BME280;21367;51.930;8.112;2023-04-03T18:36:52;102407.13;;;6.75;52.41
35224;BME280;21367;51.930;8.112;2023-04-03T18:41:58;102414.78;;;6.75;52.47
35224;BME280;21367;51.930;8.112;2023-04-03T18:47:03;102413.88;;;6.64;53.30
35224;BME280;21367;51.930;8.112;2023-04-03T18:52:10;102414.13;;;6.57;53.91
35224;BME280;21367;51.930;8.112;2023-04-03T18:57:14;102410.13;;;6.40;53.86
35224;BME280;21367;51.930;8.112;2023-04-03T19:02:18;102412.16;;;6.05;54.55
35224;BME280;21367;51.930;8.112;2023-04-03T19:07:28;102425.75;;;5.95;55.30
35224;BME280;21367;51.930;8.112;2023-04-03T19:12:31;102421.72;;;6.07;54.82
35224;BME280;21367;51.930;8.112;2023-04-03T19:17:35;102414.34;;;6.10;55.06
35224;BME280;21367;51.930;8.112;2023-04-03T19:22:42;102426.38;;;5.73;55.63
35224;BME280;21367;51.930;8.112;2023-04-03T19:27:47;102425.69;;;5.85;56.20
35224;BME280;21367;51.930;8.112;2023-04-03T19:32:51;102419.34;;;5.90;56.11
35224;BME280;21367;51.930;8.112;2023-04-03T19:37:57;102421.41;;;5.75;56.59
35224;BME280;21367;51.930;8.112;2023-04-03T19:43:01;102423.97;;;5.56;57.08
35224;BME280;21367;51.930;8.112;2023-04-03T19:48:05;102433.69;;;5.22;57.75
35224;BME280;21367;51.930;8.112;2023-04-03T19:53:12;102428.47;;;5.40;57.67
35224;BME280;21367;51.930;8.112;2023-04-03T19:58:19;102430.50;;;5.25;57.77
35224;BME280;21367;51.930;8.112;2023-04-03T20:03:23;102432.09;;;5.14;58.43
35224;BME280;21367;51.930;8.112;2023-04-03T20:08:31;102432.59;;;5.01;58.42
35224;BME280;21367;51.930;8.112;2023-04-03T20:13:37;102432.38;;;4.90;58.64
35224;BME280;21367;51.930;8.112;2023-04-03T20:18:41;102432.22;;;4.88;58.87
35224;BME280;21367;51.930;8.112;2023-04-03T20:23:48;102434.13;;;4.99;58.74
35224;BME280;21367;51.930;8.112;2023-04-03T20:28:53;102430.25;;;4.94;58.92
35224;BME280;21367;51.930;8.112;2023-04-03T20:33:57;102426.69;;;4.92;58.97
35224;BME280;21367;51.930;8.112;2023-04-03T20:39:04;102419.75;;;4.63;60.25
35224;BME280;21367;51.930;8.112;2023-04-03T20:44:08;102423.88;;;4.44;61.60
35224;BME280;21367;51.930;8.112;2023-04-03T20:49:11;102421.06;;;4.32;61.68
35224;BME280;21367;51.930;8.112;2023-04-03T20:54:18;102422.63;;;4.13;61.51
35224;BME280;21367;51.930;8.112;2023-04-03T20:59:23;102425.03;;;4.20;61.66
35224;BME280;21367;51.930;8.112;2023-04-03T21:04:31;102426.13;;;3.79;62.25
35224;BME280;21367;51.930;8.112;2023-04-03T21:20:47;102417.09;;;4.17;60.95
35224;BME280;21367;51.930;8.112;2023-04-03T21:25:52;102419.47;;;4.15;61.18
35224;BME280;21367;51.930;8.112;2023-04-03T21:30:56;102417.84;;;4.07;63.12
35224;BME280;21367;51.930;8.112;2023-04-03T21:36:02;102417.44;;;3.85;63.76
35224;BME280;21367;51.930;8.112;2023-04-03T21:41:07;102404.00;;;3.69;64.36
35224;BME280;21367;51.930;8.112;2023-04-03T21:46:11;102402.78;;;3.57;65.42
35224;BME280;21367;51.930;8.112;2023-04-03T21:51:18;102388.59;;;3.41;65.50
35224;BME280;21367;51.930;8.112;2023-04-03T21:56:22;102390.25;;;3.41;65.44
35224;BME280;21367;51.930;8.112;2023-04-03T22:01:27;102380.06;;;3.41;65.42
35224;BME280;21367;51.930;8.112;2023-04-03T22:06:34;102381.59;;;3.30;65.33
35224;BME280;21367;51.930;8.112;2023-04-03T22:11:39;102385.16;;;3.23;66.46
35224;BME280;21367;51.930;8.112;2023-04-03T22:16:45;102378.00;;;3.11;67.23
35224;BME280;21367;51.930;8.112;2023-04-03T22:21:52;102375.41;;;2.93;67.90
35224;BME280;21367;51.930;8.112;2023-04-03T22:26:56;102380.34;;;2.92;68.59
35224;BME280;21367;51.930;8.112;2023-04-03T22:32:00;102385.41;;;2.83;68.25
35224;BME280;21367;51.930;8.112;2023-04-03T22:37:07;102385.69;;;2.77;68.99
35224;BME280;21367;51.930;8.112;2023-04-03T22:42:14;102400.19;;;2.87;68.59
35224;BME280;21367;51.930;8.112;2023-04-03T22:47:17;102399.13;;;2.76;68.44
35224;BME280;21367;51.930;8.112;2023-04-03T22:52:24;102396.38;;;2.66;69.29
35224;BME280;21367;51.930;8.112;2023-04-03T22:57:28;102390.09;;;2.63;70.00
35224;BME280;21367;51.930;8.112;2023-04-03T23:02:32;102393.19;;;2.43;70.57
35224;BME280;21367;51.930;8.112;2023-04-03T23:07:39;102400.06;;;2.19;71.00
35224;BME280;21367;51.930;8.112;2023-04-03T23:12:43;102395.03;;;2.28;70.81
35224;BME280;21367;51.930;8.112;2023-04-03T23:17:47;102398.34;;;2.27;70.72
35224;BME280;21367;51.930;8.112;2023-04-03T23:22:55;102396.94;;;2.22;70.98
35224;BME280;21367;51.930;8.112;2023-04-03T23:27:58;102401.63;;;2.01;71.26
35224;BME280;21367;51.930;8.112;2023-04-03T23:33:03;102399.22;;;2.03;71.98
35224;BME280;21367;51.930;8.112;2023-04-03T23:38:09;102406.56;;;2.08;71.36
35224;BME280;21367;51.930;8.112;2023-04-03T23:43:13;102404.47;;;2.04;70.97
35224;BME280;21367;51.930;8.112;2023-04-03T23:48:17;102399.34;;;1.96;71.17
35224;BME280;21367;51.930;8.112;2023-04-03T23:53:24;102406.94;;;1.96;71.23
35224;BME280;21367;51.930;8.112;2023-04-03T23:58:28;102401.19;;;1.81;71.34
